sensor_id;sensor_type;location;lat;lon;timestamp;pressure;altitude;pressure_sealevel;temperature;humidity
35443;BME280;21561;55.654;37.592;2023-02-19T00:01:28;97780.50;;;-8.22;94.36
35443;BME280;21561;55.654;37.592;2023-02-19T00:03:59;97778.09;;;-8.19;94.44
35443;BME280;21561;55.654;37.592;2023-02-19T00:06:28;97779.78;;;-8.20;94.25
35443;BME280;21561;55.654;37.592;2023-02-19T00:08:55;97776.38;;;-8.20;94.52
35443;BME280;21561;55.654;37.592;2023-02-19T00:11:25;97778.06;;;-8.21;94.62
35443;BME280;21561;55.654;37.592;2023-02-19T00:13:54;97781.34;;;-8.22;94.23
35443;BME280;21561;55.654;37.592;2023-02-19T00:18:54;97775.47;;;-8.22;94.49
35443;BME280;21561;55.654;37.592;2023-02-19T00:21:22;97766.09;;;-8.27;94.32
35443;BME280;21561;55.654;37.592;2023-02-19T00:23:53;97767.72;;;-8.29;94.33
35443;BME280;21561;55.654;37.592;2023-02-19T00:26:20;97746.69;;;-8.31;94.58
35443;BME280;21561;55.654;37.592;2023-02-19T00:28:48;97751.59;;;-8.34;95.02
35443;BME280;21561;55.654;37.592;2023-02-19T00:31:23;97749.13;;;-8.32;94.66
35443;BME280;21561;55.654;37.592;2023-02-19T00:33:58;97755.13;;;-8.29;94.64
35443;BME280;21561;55.654;37.592;2023-02-19T00:36:27;97755.13;;;-8.29;94.66
35443;BME280;21561;55.654;37.592;2023-02-19T00:38:54;97756.63;;;-8.34;94.71
35443;BME280;21561;55.654;37.592;2023-02-19T00:41:22;97754.03;;;-8.35;95.14
35443;BME280;21561;55.654;37.592;2023-02-19T00:43:53;97763.47;;;-8.30;95.23
35443;BME280;21561;55.654;37.592;2023-02-19T00:46:23;97746.56;;;-8.34;95.23
35443;BME280;21561;55.654;37.592;2023-02-19T00:48:51;97745.75;;;-8.33;95.02
35443;BME280;21561;55.654;37.592;2023-02-19T00:51:19;97746.56;;;-8.34;95.30
35443;BME280;21561;55.654;37.592;2023-02-19T00:53:46;97736.50;;;-8.34;95.39
35443;BME280;21561;55.654;37.592;2023-02-19T00:56:13;97732.31;;;-8.33;95.76
35443;BME280;21561;55.654;37.592;2023-02-19T00:58:40;97726.63;;;-8.28;95.77
35443;BME280;21561;55.654;37.592;2023-02-19T01:01:07;97723.47;;;-8.22;95.65
35443;BME280;21561;55.654;37.592;2023-02-19T01:03:36;97719.31;;;-8.21;95.29
35443;BME280;21561;55.654;37.592;2023-02-19T01:06:05;97723.44;;;-8.23;95.38
35443;BME280;21561;55.654;37.592;2023-02-19T01:08:32;97714.97;;;-8.26;95.51
35443;BME280;21561;55.654;37.592;2023-02-19T01:11:01;97708.22;;;-8.27;95.57
35443;BME280;21561;55.654;37.592;2023-02-19T01:13:28;97706.41;;;-8.31;95.91
35443;BME280;21561;55.654;37.592;2023-02-19T01:16:07;97709.84;;;-8.29;96.15
35443;BME280;21561;55.654;37.592;2023-02-19T01:18:34;97704.56;;;-8.35;96.09
35443;BME280;21561;55.654;37.592;2023-02-19T01:21:06;97698.69;;;-8.35;96.22
35443;BME280;21561;55.654;37.592;2023-02-19T01:23:34;97699.47;;;-8.38;96.43
35443;BME280;21561;55.654;37.592;2023-02-19T01:26:12;97697.09;;;-8.33;96.37
35443;BME280;21561;55.654;37.592;2023-02-19T01:28:39;97694.44;;;-8.38;96.57
35443;BME280;21561;55.654;37.592;2023-02-19T01:31:11;97696.94;;;-8.38;96.67
35443;BME280;21561;55.654;37.592;2023-02-19T01:33:38;97687.59;;;-8.42;96.62
35443;BME280;21561;55.654;37.592;2023-02-19T01:36:06;97691.78;;;-8.41;96.45
35443;BME280;21561;55.654;37.592;2023-02-19T01:38:33;97685.88;;;-8.43;96.15
35443;BME280;21561;55.654;37.592;2023-02-19T01:41:02;97689.19;;;-8.44;96.57
35443;BME280;21561;55.654;37.592;2023-02-19T01:43:33;97681.69;;;-8.42;96.92
35443;BME280;21561;55.654;37.592;2023-02-19T01:46:00;97683.41;;;-8.41;97.05
35443;BME280;21561;55.654;37.592;2023-02-19T01:48:34;97686.81;;;-8.39;96.82
35443;BME280;21561;55.654;37.592;2023-02-19T01:51:11;97686.97;;;-8.35;96.82
35443;BME280;21561;55.654;37.592;2023-02-19T01:53:44;97689.47;;;-8.35;96.43
35443;BME280;21561;55.654;37.592;2023-02-19T01:56:14;97690.94;;;-8.41;96.15
35443;BME280;21561;55.654;37.592;2023-02-19T01:58:42;97679.97;;;-8.43;96.52
35443;BME280;21561;55.654;37.592;2023-02-19T02:01:09;97676.59;;;-8.44;96.61
35443;BME280;21561;55.654;37.592;2023-02-19T02:03:39;97682.53;;;-8.42;96.31
35443;BME280;21561;55.654;37.592;2023-02-19T02:08:50;97676.66;;;-8.42;96.18
35443;BME280;21561;55.654;37.592;2023-02-19T02:11:39;97676.50;;;-8.47;95.84
35443;BME280;21561;55.654;37.592;2023-02-19T02:14:08;97687.25;;;-8.51;96.45
35443;BME280;21561;55.654;37.592;2023-02-19T02:16:51;97685.56;;;-8.52;96.59
35443;BME280;21561;55.654;37.592;2023-02-19T02:19:45;97679.00;;;-8.47;96.59
35443;BME280;21561;55.654;37.592;2023-02-19T02:22:20;97678.91;;;-8.50;96.43
35443;BME280;21561;55.654;37.592;2023-02-19T02:25:12;97680.63;;;-8.49;96.30
35443;BME280;21561;55.654;37.592;2023-02-19T02:27:55;97680.53;;;-8.52;96.64
35443;BME280;21561;55.654;37.592;2023-02-19T02:33:13;97677.94;;;-8.54;96.74
35443;BME280;21561;55.654;37.592;2023-02-19T02:35:47;97669.66;;;-8.51;96.88
35443;BME280;21561;55.654;37.592;2023-02-19T02:38:17;97670.66;;;-8.46;96.67
35443;BME280;21561;55.654;37.592;2023-02-19T02:40:46;97671.47;;;-8.47;96.36
35443;BME280;21561;55.654;37.592;2023-02-19T02:43:13;97668.84;;;-8.50;96.26
35443;BME280;21561;55.654;37.592;2023-02-19T02:45:40;97663.81;;;-8.50;96.17
35443;BME280;21561;55.654;37.592;2023-02-19T02:50:57;97668.84;;;-8.50;96.38
35443;BME280;21561;55.654;37.592;2023-02-19T02:53:47;97659.72;;;-8.48;96.24
35443;BME280;21561;55.654;37.592;2023-02-19T02:56:34;97662.09;;;-8.51;96.43
35443;BME280;21561;55.654;37.592;2023-02-19T02:59:03;97657.06;;;-8.51;96.03
35443;BME280;21561;55.654;37.592;2023-02-19T03:01:39;97652.94;;;-8.49;96.09
35443;BME280;21561;55.654;37.592;2023-02-19T03:07:32;97656.28;;;-8.50;95.64
35443;BME280;21561;55.654;37.592;2023-02-19T03:10:01;97651.13;;;-8.53;95.66
35443;BME280;21561;55.654;37.592;2023-02-19T03:12:29;97652.03;;;-8.51;96.12
35443;BME280;21561;55.654;37.592;2023-02-19T03:15:18;97648.81;;;-8.47;96.34
35443;BME280;21561;55.654;37.592;2023-02-19T03:18:07;97651.53;;;-8.41;96.35
35443;BME280;21561;55.654;37.592;2023-02-19T03:20:55;97645.69;;;-8.40;96.10
35443;BME280;21561;55.654;37.592;2023-02-19T03:23:27;97647.28;;;-8.43;96.30
35443;BME280;21561;55.654;37.592;2023-02-19T03:26:16;97636.22;;;-8.49;96.66
35443;BME280;21561;55.654;37.592;2023-02-19T03:28:46;97638.69;;;-8.50;97.26
35443;BME280;21561;55.654;37.592;2023-02-19T03:31:34;97642.81;;;-8.52;96.98
35443;BME280;21561;55.654;37.592;2023-02-19T03:34:08;97636.09;;;-8.52;97.53
35443;BME280;21561;55.654;37.592;2023-02-19T03:36:52;97638.63;;;-8.52;97.96
35443;BME280;21561;55.654;37.592;2023-02-19T03:39:22;97631.81;;;-8.54;97.63
35443;BME280;21561;55.654;37.592;2023-02-19T03:44:44;97622.19;;;-8.42;98.06
35443;BME280;21561;55.654;37.592;2023-02-19T03:53:02;97627.41;;;-8.36;97.54
35443;BME280;21561;55.654;37.592;2023-02-19T03:56:12;97632.44;;;-8.36;97.63
35443;BME280;21561;55.654;37.592;2023-02-19T04:01:20;97618.84;;;-8.41;97.47
35443;BME280;21561;55.654;37.592;2023-02-19T04:03:58;97618.84;;;-8.41;97.53
35443;BME280;21561;55.654;37.592;2023-02-19T04:06:28;97615.34;;;-8.46;97.94
35443;BME280;21561;55.654;37.592;2023-02-19T04:08:57;97621.97;;;-8.48;97.64
35443;BME280;21561;55.654;37.592;2023-02-19T04:11:26;97618.63;;;-8.47;97.84
35443;BME280;21561;55.654;37.592;2023-02-19T04:14:02;97622.09;;;-8.45;98.21
35443;BME280;21561;55.654;37.592;2023-02-19T04:16:35;97617.97;;;-8.43;97.60
35443;BME280;21561;55.654;37.592;2023-02-19T04:19:08;97615.44;;;-8.43;97.56
35443;BME280;21561;55.654;37.592;2023-02-19T04:21:38;97613.59;;;-8.47;97.76
35443;BME280;21561;55.654;37.592;2023-02-19T04:24:10;97611.09;;;-8.47;97.47
35443;BME280;21561;55.654;37.592;2023-02-19T04:26:40;97612.69;;;-8.49;98.03
35443;BME280;21561;55.654;37.592;2023-02-19T04:29:07;97603.47;;;-8.50;98.05
35443;BME280;21561;55.654;37.592;2023-02-19T04:31:35;97610.19;;;-8.49;97.81
35443;BME280;21561;55.654;37.592;2023-02-19T04:34:02;97608.56;;;-8.47;98.30
35443;BME280;21561;55.654;37.592;2023-02-19T04:36:30;97612.75;;;-8.48;97.75
35443;BME280;21561;55.654;37.592;2023-02-19T04:38:58;97606.78;;;-8.51;97.95
35443;BME280;21561;55.654;37.592;2023-02-19T04:41:25;97610.09;;;-8.52;97.93
35443;BME280;21561;55.654;37.592;2023-02-19T04:43:51;97602.50;;;-8.54;98.21
35443;BME280;21561;55.654;37.592;2023-02-19T04:46:18;97609.03;;;-8.59;98.05
35443;BME280;21561;55.654;37.592;2023-02-19T04:48:45;97601.41;;;-8.60;98.42
35443;BME280;21561;55.654;37.592;2023-02-19T04:51:12;97609.75;;;-8.61;98.33
35443;BME280;21561;55.654;37.592;2023-02-19T04:53:39;97604.72;;;-8.61;98.42
35443;BME280;21561;55.654;37.592;2023-02-19T04:56:11;97604.97;;;-8.55;98.88
35443;BME280;21561;55.654;37.592;2023-02-19T04:58:39;97603.22;;;-8.56;98.63
35443;BME280;21561;55.654;37.592;2023-02-19T05:01:07;97588.16;;;-8.56;98.48
35443;BME280;21561;55.654;37.592;2023-02-19T05:03:34;97598.13;;;-8.59;98.84
35443;BME280;21561;55.654;37.592;2023-02-19T05:06:06;97598.13;;;-8.59;98.79
35443;BME280;21561;55.654;37.592;2023-02-19T05:08:34;97589.63;;;-8.61;99.02
35443;BME280;21561;55.654;37.592;2023-02-19T05:11:02;97591.38;;;-8.60;99.44
35443;BME280;21561;55.654;37.592;2023-02-19T05:13:30;97581.31;;;-8.60;99.52
35443;BME280;21561;55.654;37.592;2023-02-19T05:16:06;97589.03;;;-8.56;99.44
35443;BME280;21561;55.654;37.592;2023-02-19T05:18:34;97583.13;;;-8.56;100.00
35443;BME280;21561;55.654;37.592;2023-02-19T05:21:01;97591.56;;;-8.54;99.54
35443;BME280;21561;55.654;37.592;2023-02-19T05:23:28;97584.00;;;-8.54;99.68
35443;BME280;21561;55.654;37.592;2023-02-19T05:25:55;97584.84;;;-8.55;99.58
35443;BME280;21561;55.654;37.592;2023-02-19T05:28:22;97580.59;;;-8.56;99.62
35443;BME280;21561;55.654;37.592;2023-02-19T05:30:55;97578.19;;;-8.53;100.00
35443;BME280;21561;55.654;37.592;2023-02-19T05:33:24;97576.47;;;-8.54;99.68
35443;BME280;21561;55.654;37.592;2023-02-19T05:35:54;97574.13;;;-8.50;99.85
35443;BME280;21561;55.654;37.592;2023-02-19T05:38:21;97570.78;;;-8.50;99.37
35443;BME280;21561;55.654;37.592;2023-02-19T05:40:48;97566.53;;;-8.51;99.68
35443;BME280;21561;55.654;37.592;2023-02-19T05:43:15;97564.91;;;-8.49;99.89
35443;BME280;21561;55.654;37.592;2023-02-19T05:45:42;97564.91;;;-8.49;98.98
35443;BME280;21561;55.654;37.592;2023-02-19T05:48:09;97563.22;;;-8.50;99.03
35443;BME280;21561;55.654;37.592;2023-02-19T05:50:37;97570.81;;;-8.49;98.86
35443;BME280;21561;55.654;37.592;2023-02-19T05:53:05;97569.16;;;-8.48;98.90
35443;BME280;21561;55.654;37.592;2023-02-19T05:55:35;97570.13;;;-8.45;98.89
35443;BME280;21561;55.654;37.592;2023-02-19T05:58:02;97573.38;;;-8.47;98.49
35443;BME280;21561;55.654;37.592;2023-02-19T06:00:31;97562.63;;;-8.43;98.67
35443;BME280;21561;55.654;37.592;2023-02-19T06:02:58;97563.41;;;-8.44;98.14
35443;BME280;21561;55.654;37.592;2023-02-19T06:05:24;97570.19;;;-8.43;98.00
35443;BME280;21561;55.654;37.592;2023-02-19T06:07:51;97558.47;;;-8.41;98.43
35443;BME280;21561;55.654;37.592;2023-02-19T06:10:18;97571.94;;;-8.39;98.20
35443;BME280;21561;55.654;37.592;2023-02-19T06:12:45;97566.97;;;-8.37;98.21
35443;BME280;21561;55.654;37.592;2023-02-19T06:15:12;97562.00;;;-8.36;97.89
35443;BME280;21561;55.654;37.592;2023-02-19T06:17:38;97562.06;;;-8.33;98.25
35443;BME280;21561;55.654;37.592;2023-02-19T06:20:06;97575.47;;;-8.34;97.80
35443;BME280;21561;55.654;37.592;2023-02-19T06:22:33;97569.53;;;-8.36;98.29
35443;BME280;21561;55.654;37.592;2023-02-19T06:24:59;97565.31;;;-8.37;98.45
35443;BME280;21561;55.654;37.592;2023-02-19T06:27:28;97564.56;;;-8.34;98.62
35443;BME280;21561;55.654;37.592;2023-02-19T06:29:55;97562.06;;;-8.33;98.29
35443;BME280;21561;55.654;37.592;2023-02-19T06:32:22;97559.66;;;-8.30;98.76
35443;BME280;21561;55.654;37.592;2023-02-19T06:34:49;97562.31;;;-8.27;98.02
35443;BME280;21561;55.654;37.592;2023-02-19T06:37:16;97558.97;;;-8.26;97.76
35443;BME280;21561;55.654;37.592;2023-02-19T06:39:42;97551.38;;;-8.27;97.79
35443;BME280;21561;55.654;37.592;2023-02-19T06:42:10;97563.19;;;-8.25;97.78
35443;BME280;21561;55.654;37.592;2023-02-19T06:44:37;97558.97;;;-8.26;97.88
35443;BME280;21561;55.654;37.592;2023-02-19T06:47:03;97543.03;;;-8.26;98.01
35443;BME280;21561;55.654;37.592;2023-02-19T06:49:30;97547.31;;;-8.23;98.17
35443;BME280;21561;55.654;37.592;2023-02-19T06:51:57;97543.38;;;-8.15;98.58
35443;BME280;21561;55.654;37.592;2023-02-19T06:54:25;97541.06;;;-8.09;98.12
35443;BME280;21561;55.654;37.592;2023-02-19T06:56:52;97540.13;;;-8.11;97.41
35443;BME280;21561;55.654;37.592;2023-02-19T06:59:19;97537.53;;;-8.14;97.38
35443;BME280;21561;55.654;37.592;2023-02-19T07:01:46;97532.50;;;-8.14;97.25
35443;BME280;21561;55.654;37.592;2023-02-19T07:04:13;97529.16;;;-8.13;97.04
35443;BME280;21561;55.654;37.592;2023-02-19T07:06:40;97535.03;;;-8.14;97.13
35443;BME280;21561;55.654;37.592;2023-02-19T07:09:08;97522.53;;;-8.11;96.88
35443;BME280;21561;55.654;37.592;2023-02-19T07:11:36;97529.28;;;-8.10;96.73
35443;BME280;21561;55.654;37.592;2023-02-19T07:14:06;97531.06;;;-8.06;96.89
35443;BME280;21561;55.654;37.592;2023-02-19T07:16:34;97523.47;;;-8.08;96.21
35443;BME280;21561;55.654;37.592;2023-02-19T07:19:02;97513.31;;;-8.11;96.19
35443;BME280;21561;55.654;37.592;2023-02-19T07:21:29;97514.13;;;-8.12;96.15
35443;BME280;21561;55.654;37.592;2023-02-19T07:23:56;97518.31;;;-8.12;95.83
35443;BME280;21561;55.654;37.592;2023-02-19T07:26:24;97514.06;;;-8.13;95.67
35443;BME280;21561;55.654;37.592;2023-02-19T07:28:51;97510.66;;;-8.15;95.78
35443;BME280;21561;55.654;37.592;2023-02-19T07:31:19;97514.00;;;-8.16;96.02
35443;BME280;21561;55.654;37.592;2023-02-19T07:33:47;97507.25;;;-8.17;96.08
35443;BME280;21561;55.654;37.592;2023-02-19T07:36:14;97497.16;;;-8.17;96.77
35443;BME280;21561;55.654;37.592;2023-02-19T07:38:43;97495.44;;;-8.18;97.13
35443;BME280;21561;55.654;37.592;2023-02-19T07:41:10;97503.81;;;-8.19;97.31
35443;BME280;21561;55.654;37.592;2023-02-19T07:43:38;97499.63;;;-8.19;97.49
35443;BME280;21561;55.654;37.592;2023-02-19T07:46:07;97494.72;;;-8.16;97.62
35443;BME280;21561;55.654;37.592;2023-02-19T07:48:36;97497.28;;;-8.14;97.71
35443;BME280;21561;55.654;37.592;2023-02-19T07:51:04;97492.44;;;-8.08;97.71
35443;BME280;21561;55.654;37.592;2023-02-19T07:53:33;97493.31;;;-8.06;97.53
35443;BME280;21561;55.654;37.592;2023-02-19T07:56:03;97499.25;;;-8.04;97.54
35443;BME280;21561;55.654;37.592;2023-02-19T07:58:31;97499.19;;;-8.07;97.52
35443;BME280;21561;55.654;37.592;2023-02-19T08:01:09;97484.09;;;-8.07;97.58
35443;BME280;21561;55.654;37.592;2023-02-19T08:03:37;97485.78;;;-8.06;97.94
35443;BME280;21561;55.654;37.592;2023-02-19T08:06:05;97480.91;;;-8.01;97.52
35443;BME280;21561;55.654;37.592;2023-02-19T08:08:32;97488.56;;;-7.98;97.61
35443;BME280;21561;55.654;37.592;2023-02-19T08:11:00;97488.56;;;-7.97;97.41
35443;BME280;21561;55.654;37.592;2023-02-19T08:13:47;97481.16;;;-7.92;97.14
35443;BME280;21561;55.654;37.592;2023-02-19T08:16:15;97487.94;;;-7.91;97.04
35443;BME280;21561;55.654;37.592;2023-02-19T08:18:55;97481.22;;;-7.91;96.87
35443;BME280;21561;55.654;37.592;2023-02-19T08:21:22;97487.88;;;-7.93;96.76
35443;BME280;21561;55.654;37.592;2023-02-19T08:23:49;97479.50;;;-7.92;96.96
35443;BME280;21561;55.654;37.592;2023-02-19T08:26:17;97475.47;;;-7.87;96.88
35443;BME280;21561;55.654;37.592;2023-02-19T08:28:44;97475.56;;;-7.83;96.72
35443;BME280;21561;55.654;37.592;2023-02-19T08:31:11;97474.78;;;-7.81;96.73
35443;BME280;21561;55.654;37.592;2023-02-19T08:33:39;97480.59;;;-7.83;96.82
35443;BME280;21561;55.654;37.592;2023-02-19T08:36:07;97474.75;;;-7.82;97.32
35443;BME280;21561;55.654;37.592;2023-02-19T08:38:35;97479.78;;;-7.82;97.46
35443;BME280;21561;55.654;37.592;2023-02-19T08:41:04;97474.75;;;-7.82;97.08
35443;BME280;21561;55.654;37.592;2023-02-19T08:43:32;97478.84;;;-7.86;97.10
35443;BME280;21561;55.654;37.592;2023-02-19T08:45:59;97475.47;;;-7.87;97.05
35443;BME280;21561;55.654;37.592;2023-02-19T08:48:27;97473.94;;;-7.81;97.37
35443;BME280;21561;55.654;37.592;2023-02-19T08:50:59;97463.25;;;-7.74;97.74
35443;BME280;21561;55.654;37.592;2023-02-19T08:53:30;97463.41;;;-7.70;97.62
35443;BME280;21561;55.654;37.592;2023-02-19T08:56:07;97457.69;;;-7.64;97.24
35443;BME280;21561;55.654;37.592;2023-02-19T08:58:34;97463.50;;;-7.65;97.05
35443;BME280;21561;55.654;37.592;2023-02-19T09:01:09;97456.06;;;-7.62;96.89
35443;BME280;21561;55.654;37.592;2023-02-19T09:03:37;97454.22;;;-7.68;96.58
35443;BME280;21561;55.654;37.592;2023-02-19T09:06:04;97453.19;;;-7.74;96.53
35443;BME280;21561;55.654;37.592;2023-02-19T09:08:31;97455.59;;;-7.77;96.45
35443;BME280;21561;55.654;37.592;2023-02-19T09:11:02;97455.78;;;-7.71;96.69
35443;BME280;21561;55.654;37.592;2023-02-19T09:13:30;97451.44;;;-7.75;96.34
35443;BME280;21561;55.654;37.592;2023-02-19T09:15:56;97442.22;;;-7.76;96.38
35443;BME280;21561;55.654;37.592;2023-02-19T09:18:24;97450.59;;;-7.76;96.45
35443;BME280;21561;55.654;37.592;2023-02-19T09:20:51;97448.91;;;-7.77;96.39
35443;BME280;21561;55.654;37.592;2023-02-19T09:23:18;97449.75;;;-7.76;97.35
35443;BME280;21561;55.654;37.592;2023-02-19T09:25:45;97438.06;;;-7.74;97.69
35443;BME280;21561;55.654;37.592;2023-02-19T09:28:12;97431.59;;;-7.66;97.28
35443;BME280;21561;55.654;37.592;2023-02-19T09:30:38;97429.19;;;-7.61;97.58
35443;BME280;21561;55.654;37.592;2023-02-19T09:33:05;97431.94;;;-7.54;97.89
35443;BME280;21561;55.654;37.592;2023-02-19T09:35:32;97430.41;;;-7.49;97.14
35443;BME280;21561;55.654;37.592;2023-02-19T09:37:59;97423.72;;;-7.46;96.98
35443;BME280;21561;55.654;37.592;2023-02-19T09:40:29;97426.44;;;-7.40;96.73
35443;BME280;21561;55.654;37.592;2023-02-19T09:42:56;97425.59;;;-7.39;96.78
35443;BME280;21561;55.654;37.592;2023-02-19T09:45:25;97418.97;;;-7.37;96.32
35443;BME280;21561;55.654;37.592;2023-02-19T09:47:54;97418.13;;;-7.36;97.10
35443;BME280;21561;55.654;37.592;2023-02-19T09:50:31;97409.94;;;-7.29;97.22
35443;BME280;21561;55.654;37.592;2023-02-19T09:53:02;97413.31;;;-7.29;96.64
35443;BME280;21561;55.654;37.592;2023-02-19T09:55:33;97415.03;;;-7.27;96.37
35443;BME280;21561;55.654;37.592;2023-02-19T09:58:07;97403.22;;;-7.29;96.46
35443;BME280;21561;55.654;37.592;2023-02-19T10:00:40;97400.69;;;-7.30;95.86
35443;BME280;21561;55.654;37.592;2023-02-19T10:03:16;97404.94;;;-7.27;96.15
35443;BME280;21561;55.654;37.592;2023-02-19T10:05:46;97398.06;;;-7.33;96.52
35443;BME280;21561;55.654;37.592;2023-02-19T10:08:17;97394.03;;;-7.28;96.56
35443;BME280;21561;55.654;37.592;2023-02-19T10:10:45;97395.56;;;-7.33;95.85
35443;BME280;21561;55.654;37.592;2023-02-19T10:16:24;97401.63;;;-7.25;96.06
35443;BME280;21561;55.654;37.592;2023-02-19T10:18:52;97403.13;;;-7.33;95.36
35443;BME280;21561;55.654;37.592;2023-02-19T10:21:22;97397.25;;;-7.32;95.60
35443;BME280;21561;55.654;37.592;2023-02-19T10:23:58;97400.69;;;-7.30;95.14
35443;BME280;21561;55.654;37.592;2023-02-19T10:26:27;97399.84;;;-7.29;95.93
35443;BME280;21561;55.654;37.592;2023-02-19T10:28:54;97399.16;;;-7.23;95.69
35443;BME280;21561;55.654;37.592;2023-02-19T10:31:23;97403.44;;;-7.21;95.15
35443;BME280;21561;55.654;37.592;2023-02-19T10:33:53;97394.25;;;-7.19;95.86
35443;BME280;21561;55.654;37.592;2023-02-19T10:36:35;97398.66;;;-7.12;95.21
35443;BME280;21561;55.654;37.592;2023-02-19T10:41:48;97399.69;;;-7.03;95.56
35443;BME280;21561;55.654;37.592;2023-02-19T10:44:26;97390.72;;;-6.94;95.42
35443;BME280;21561;55.654;37.592;2023-02-19T10:46:56;97393.09;;;-6.98;94.89
35443;BME280;21561;55.654;37.592;2023-02-19T10:52:00;97387.81;;;-7.07;95.10
35443;BME280;21561;55.654;37.592;2023-02-19T10:54:30;97387.81;;;-7.07;95.89
35443;BME280;21561;55.654;37.592;2023-02-19T11:02:24;97382.50;;;-6.50;94.98
35443;BME280;21561;55.654;37.592;2023-02-19T11:07:30;97386.75;;;-6.49;93.65
35443;BME280;21561;55.654;37.592;2023-02-19T11:09:58;97385.31;;;-6.38;93.52
35443;BME280;21561;55.654;37.592;2023-02-19T11:12:30;97392.44;;;-6.21;93.34
35443;BME280;21561;55.654;37.592;2023-02-19T11:15:20;97379.09;;;-6.16;93.18
35443;BME280;21561;55.654;37.592;2023-02-19T11:18:17;97378.31;;;-6.13;92.37
35443;BME280;21561;55.654;37.592;2023-02-19T11:21:00;97377.41;;;-6.17;92.19
35443;BME280;21561;55.654;37.592;2023-02-19T11:23:31;97376.28;;;-6.29;91.86
35443;BME280;21561;55.654;37.592;2023-02-19T11:26:03;97371.03;;;-6.39;92.08
35443;BME280;21561;55.654;37.592;2023-02-19T11:28:35;97374.13;;;-6.49;92.19
35443;BME280;21561;55.654;37.592;2023-02-19T11:31:21;97373.97;;;-6.55;92.60
35443;BME280;21561;55.654;37.592;2023-02-19T11:34:22;97378.09;;;-6.60;92.68
35443;BME280;21561;55.654;37.592;2023-02-19T11:37:12;97372.06;;;-6.65;92.78
35443;BME280;21561;55.654;37.592;2023-02-19T11:39:45;97366.88;;;-6.72;92.54
35443;BME280;21561;55.654;37.592;2023-02-19T11:53:31;97361.28;;;-6.60;91.58
35443;BME280;21561;55.654;37.592;2023-02-19T11:56:14;97363.84;;;-6.58;91.66
35443;BME280;21561;55.654;37.592;2023-02-19T12:01:22;97363.84;;;-6.58;90.99
35443;BME280;21561;55.654;37.592;2023-02-19T12:07:23;97370.72;;;-6.51;91.05
35443;BME280;21561;55.654;37.592;2023-02-19T12:09:45;97363.25;;;-6.46;90.20
35443;BME280;21561;55.654;37.592;2023-02-19T12:12:32;97366.44;;;-6.54;89.72
35443;BME280;21561;55.654;37.592;2023-02-19T12:18:03;97357.91;;;-6.60;89.71
35443;BME280;21561;55.654;37.592;2023-02-19T12:45:05;97357.13;;;-6.91;90.79
35443;BME280;21561;55.654;37.592;2023-02-19T12:47:38;97367.16;;;-6.94;90.69
35443;BME280;21561;55.654;37.592;2023-02-19T12:50:26;97363.16;;;-6.86;91.00
35443;BME280;21561;55.654;37.592;2023-02-19T12:53:00;97363.06;;;-6.91;90.87
35443;BME280;21561;55.654;37.592;2023-02-19T12:55:42;97370.63;;;-6.91;91.12
35443;BME280;21561;55.654;37.592;2023-02-19T12:58:17;97367.16;;;-6.94;91.60
35443;BME280;21561;55.654;37.592;2023-02-19T13:00:49;97365.38;;;-6.98;91.86
35443;BME280;21561;55.654;37.592;2023-02-19T13:03:40;97372.09;;;-6.99;92.23
35443;BME280;21561;55.654;37.592;2023-02-19T13:08:44;97377.97;;;-6.98;92.52
35443;BME280;21561;55.654;37.592;2023-02-19T13:12:11;97369.69;;;-6.94;92.72
35443;BME280;21561;55.654;37.592;2023-02-19T13:14:33;97374.72;;;-6.94;93.01
35443;BME280;21561;55.654;37.592;2023-02-19T13:20:02;97371.81;;;-7.10;94.16
35443;BME280;21561;55.654;37.592;2023-02-19T13:22:50;97376.75;;;-7.13;94.52
35443;BME280;21561;55.654;37.592;2023-02-19T13:37:02;97370.88;;;-7.13;95.78
35443;BME280;21561;55.654;37.592;2023-02-19T13:39:29;97372.56;;;-7.14;96.16
35443;BME280;21561;55.654;37.592;2023-02-19T13:41:57;97365.78;;;-7.15;96.51
35443;BME280;21561;55.654;37.592;2023-02-19T13:44:27;97369.19;;;-7.13;96.66
35443;BME280;21561;55.654;37.592;2023-02-19T13:46:55;97369.19;;;-7.13;96.63
35443;BME280;21561;55.654;37.592;2023-02-19T13:51:58;97365.88;;;-7.12;96.68
35443;BME280;21561;55.654;37.592;2023-02-19T13:54:33;97362.53;;;-7.11;97.16
35443;BME280;21561;55.654;37.592;2023-02-19T13:59:52;97362.47;;;-7.14;96.95
35443;BME280;21561;55.654;37.592;2023-02-19T14:04:49;97365.69;;;-7.18;97.27
35443;BME280;21561;55.654;37.592;2023-02-19T14:09:44;97347.25;;;-7.17;97.44
35443;BME280;21561;55.654;37.592;2023-02-19T14:25:30;97343.25;;;-7.10;98.41
35443;BME280;21561;55.654;37.592;2023-02-19T14:28:25;97342.44;;;-7.07;98.61
35443;BME280;21561;55.654;37.592;2023-02-19T14:30:56;97340.75;;;-7.08;98.68
35443;BME280;21561;55.654;37.592;2023-02-19T14:33:35;97348.38;;;-7.05;98.83
35443;BME280;21561;55.654;37.592;2023-02-19T14:36:28;97339.19;;;-7.03;98.81
35443;BME280;21561;55.654;37.592;2023-02-19T14:39:04;97338.19;;;-7.10;98.92
35443;BME280;21561;55.654;37.592;2023-02-19T14:41:36;97332.28;;;-7.11;98.76
35443;BME280;21561;55.654;37.592;2023-02-19T14:44:06;97333.09;;;-7.12;98.86
35443;BME280;21561;55.654;37.592;2023-02-19T14:52:19;97330.50;;;-7.15;99.16
35443;BME280;21561;55.654;37.592;2023-02-19T14:57:21;97337.03;;;-7.23;98.62
35443;BME280;21561;55.654;37.592;2023-02-19T15:00:00;97325.28;;;-7.22;98.70
35443;BME280;21561;55.654;37.592;2023-02-19T15:02:30;97323.69;;;-7.19;98.46
35443;BME280;21561;55.654;37.592;2023-02-19T15:04:57;97328.50;;;-7.28;98.37
35443;BME280;21561;55.654;37.592;2023-02-19T15:07:30;97329.34;;;-7.27;97.98
35443;BME280;21561;55.654;37.592;2023-02-19T15:10:00;97330.97;;;-7.30;98.11
35443;BME280;21561;55.654;37.592;2023-02-19T15:12:34;97335.16;;;-7.30;97.82
35443;BME280;21561;55.654;37.592;2023-02-19T15:15:04;97331.72;;;-7.32;97.76
35443;BME280;21561;55.654;37.592;2023-02-19T15:17:33;97328.41;;;-7.31;97.88
35443;BME280;21561;55.654;37.592;2023-02-19T15:20:09;97326.78;;;-7.29;98.09
35443;BME280;21561;55.654;37.592;2023-02-19T15:22:39;97330.88;;;-7.33;97.65
35443;BME280;21561;55.654;37.592;2023-02-19T15:25:09;97323.22;;;-7.37;97.94
35443;BME280;21561;55.654;37.592;2023-02-19T15:27:40;97325.69;;;-7.39;97.71